Time;durP1;ratioP1;P1;durP2;ratioP2;P2;SDS_P1;SDS_P2;PMS_P1;PMS_P2;Temp;Humidity;BMP_temperature;BMP_pressure;BME280_temperature;BME280_humidity;BME280_pressure;Samples;Min_cycle;Max_cycle;Signal;HPM_P1;HPM_P2
2022/08/01 00:01:36;;;;;;;2.07;1.97;;;;;;;21.83;82.04;100303.25;5014930;28;20278;-77
2022/08/01 00:04:02;;;;;;;2.77;2.43;;;;;;;21.82;81.78;100301.53;5008676;28;20754;-77
2022/08/01 00:06:28;;;;;;;2.43;2.23;;;;;;;21.81;81.61;100305.09;5008566;28;20192;-75
2022/08/01 00:08:53;;;;;;;2.30;2.20;;;;;;;21.78;81.64;100308.78;5003547;28;20201;-78
2022/08/01 00:11:18;;;;;;;2.23;2.07;;;;;;;21.76;82.14;100295.72;5008404;28;20219;-77
2022/08/01 00:13:44;;;;;;;2.50;2.30;;;;;;;21.74;82.65;100302.84;5008970;28;20297;-79
2022/08/01 00:16:10;;;;;;;2.43;2.30;;;;;;;21.74;82.95;100302.84;5009345;28;20524;-76
2022/08/01 00:18:36;;;;;;;2.70;2.50;;;;;;;21.75;82.97;100306.31;5011667;28;20184;-75
2022/08/01 00:21:03;;;;;;;2.83;2.40;;;;;;;21.74;82.93;100299.34;5014209;28;20582;-77
2022/08/01 00:23:28;;;;;;;2.83;2.57;;;;;;;21.73;82.93;100302.91;5018443;28;20210;-77
2022/08/01 00:25:54;;;;;;;2.20;2.10;;;;;;;21.71;82.88;100302.13;5025920;28;20659;-78
2022/08/01 00:28:20;;;;;;;2.60;2.40;;;;;;;21.71;83.27;100302.13;5002010;28;20204;-74
2022/08/01 00:30:45;;;;;;;2.80;2.60;;;;;;;21.70;83.28;100314.47;5006954;28;20214;-75
2022/08/01 00:33:10;;;;;;;2.63;2.43;;;;;;;21.69;83.30;100315.41;5008015;28;20242;-78
2022/08/01 00:35:36;;;;;;;2.63;2.43;;;;;;;21.66;83.52;100306.81;5011747;28;20219;-77
2022/08/01 00:38:01;;;;;;;2.50;2.37;;;;;;;21.63;83.90;100321.00;5022432;28;20184;-77
2022/08/01 00:40:26;;;;;;;2.80;2.60;;;;;;;21.60;84.38;100308.84;5009013;28;20219;-77
2022/08/01 00:42:52;;;;;;;2.67;2.20;;;;;;;21.59;84.85;100314.19;5009719;28;20192;-77
2022/08/01 00:45:20;;;;;;;2.67;2.50;;;;;;;21.56;84.53;100320.44;5017931;28;20876;-76
2022/08/01 00:47:45;;;;;;;2.57;2.37;;;;;;;21.54;84.20;100316.22;5008450;28;20180;-76
2022/08/01 00:50:11;;;;;;;3.37;2.60;;;;;;;21.52;84.15;100312.81;5004978;28;20210;-77
2022/08/01 00:52:38;;;;;;;2.50;2.30;;;;;;;21.51;84.90;100305.84;5011362;28;20176;-76
2022/08/01 00:55:05;;;;;;;2.73;2.53;;;;;;;21.49;84.96;100313.84;5004840;28;20201;-78
2022/08/01 00:57:30;;;;;;;2.53;2.33;;;;;;;21.46;84.64;100309.59;5007537;28;20278;-74
2022/08/01 00:59:56;;;;;;;2.93;2.60;;;;;;;21.43;85.03;100311.53;5015190;28;20235;-75
2022/08/01 01:02:21;;;;;;;2.80;2.60;;;;;;;21.41;85.49;100310.75;5006581;28;20203;-75
2022/08/01 01:04:46;;;;;;;2.67;2.47;;;;;;;21.37;85.29;100311.88;5010488;28;20203;-78
2022/08/01 01:07:21;;;;;;;2.60;2.40;;;;;;;21.35;85.42;100314.56;5009361;28;20212;-76
2022/08/01 01:09:57;;;;;;;2.63;2.43;;;;;;;21.32;85.66;100307.69;5007631;28;20302;-80
2022/08/01 01:12:42;;;;;;;3.07;2.83;;;;;;;21.31;85.42;100321.78;5010683;28;20306;-75
2022/08/01 01:15:20;;;;;;;2.77;2.57;;;;;;;21.28;85.47;100313.22;5000495;28;20215;-77
2022/08/01 01:17:55;;;;;;;3.03;2.63;;;;;;;21.25;85.79;100316.84;5022823;28;20273;-77
2022/08/01 01:20:23;;;;;;;3.10;2.90;;;;;;;21.23;86.25;100312.59;5013622;28;20274;-77
2022/08/01 01:23:26;;;;;;;2.97;2.70;;;;;;;21.21;86.77;100322.34;5005025;28;20195;-74
2022/08/01 01:26:17;;;;;;;3.00;2.70;;;;;;;21.17;87.71;100324.31;5010250;28;20193;-74
2022/08/01 01:29:01;;;;;;;2.70;2.50;;;;;;;21.12;88.03;100326.31;4981978;28;20203;-74
2022/08/01 01:31:28;;;;;;;2.80;2.60;;;;;;;21.09;87.65;100323.88;5009043;28;20204;-77
2022/08/01 01:33:56;;;;;;;3.00;2.80;;;;;;;21.06;87.68;100326.66;5011762;28;20219;-77
2022/08/01 01:36:26;;;;;;;2.63;2.43;;;;;;;21.04;87.41;100323.25;5007523;28;20299;-76
2022/08/01 01:38:52;;;;;;;2.67;2.47;;;;;;;21.02;87.42;100318.91;5003264;28;20219;-78
2022/08/01 01:41:19;;;;;;;2.80;2.60;;;;;;;21.01;87.18;100325.09;5002510;28;20226;-76
2022/08/01 01:43:47;;;;;;;2.90;2.70;;;;;;;21.01;87.41;100329.53;5004638;28;20242;-76
2022/08/01 01:46:17;;;;;;;3.37;3.13;;;;;;;21.00;87.11;100326.03;5011528;28;20196;-74
2022/08/01 01:48:44;;;;;;;2.93;2.73;;;;;;;20.99;86.98;100316.44;5001612;28;20279;-77
2022/08/01 01:51:12;;;;;;;2.83;2.63;;;;;;;20.97;87.17;100313.03;5013434;28;20236;-77
2022/08/01 01:53:39;;;;;;;3.17;2.97;;;;;;;20.97;87.51;100322.72;5012535;28;20202;-76
2022/08/01 01:56:08;;;;;;;3.10;2.90;;;;;;;20.94;87.80;100322.88;5015144;28;20209;-77
2022/08/01 01:58:35;;;;;;;3.50;2.70;;;;;;;20.91;88.16;100328.28;5013853;28;20240;-76
2022/08/01 02:01:02;;;;;;;3.10;2.83;;;;;;;20.90;88.60;100323.94;5005583;28;20299;-77
2022/08/01 02:03:28;;;;;;;3.10;2.90;;;;;;;20.87;88.23;100322.34;5001140;28;20189;-78
2022/08/01 02:05:55;;;;;;;2.90;2.70;;;;;;;20.84;88.43;100322.50;5001253;28;20190;-76
2022/08/01 02:08:23;;;;;;;4.47;3.00;;;;;;;20.80;88.59;100329.69;5014702;28;20211;-77
2022/08/01 02:13:38;;;;;;;3.07;2.87;;;;;;;20.73;88.45;100325.63;5001046;28;20265;-78
2022/08/01 02:16:05;;;;;;;2.90;2.70;;;;;;;20.71;89.15;100328.34;5004252;28;20213;-79
2022/08/01 02:18:31;;;;;;;3.17;2.97;;;;;;;20.69;89.27;100326.75;5003730;28;20193;-75
2022/08/01 02:20:58;;;;;;;3.27;3.07;;;;;;;20.66;89.70;100326.88;5019937;28;20218;-76
2022/08/01 02:23:31;;;;;;;3.27;3.00;;;;;;;20.62;90.34;100326.19;5003977;28;20222;-78
2022/08/01 02:26:00;;;;;;;3.30;3.00;;;;;;;20.59;90.53;100328.09;5009066;28;20207;-74
2022/08/01 02:28:32;;;;;;;2.90;2.70;;;;;;;20.54;90.88;100325.72;5016470;28;20253;-76
2022/08/01 02:31:02;;;;;;;2.87;2.67;;;;;;;20.51;91.67;100334.63;5010606;28;20226;-76
2022/08/01 02:33:37;;;;;;;2.97;2.77;;;;;;;20.46;92.17;100326.09;5011860;28;20207;-76
2022/08/01 02:36:04;;;;;;;2.90;2.70;;;;;;;20.43;91.90;100326.25;5005936;28;20217;-76
2022/08/01 02:38:37;;;;;;;3.27;3.03;;;;;;;20.40;92.82;100331.69;5009736;28;20199;-74
2022/08/01 02:41:12;;;;;;;3.10;2.80;;;;;;;20.39;93.61;100330.81;5002312;28;20202;-74
2022/08/01 02:43:43;;;;;;;3.40;3.10;;;;;;;20.38;94.39;100338.78;5007636;28;20195;-76
2022/08/01 02:46:15;;;;;;;3.53;3.27;;;;;;;20.34;94.36;100329.34;5008580;28;20195;-76
2022/08/01 02:48:41;;;;;;;3.10;2.90;;;;;;;20.30;94.56;100326.03;5017943;28;20199;-74
2022/08/01 02:51:08;;;;;;;3.57;3.27;;;;;;;20.28;94.78;100330.50;5007466;28;20203;-76
2022/08/01 02:53:38;;;;;;;3.13;2.93;;;;;;;20.24;95.23;100335.06;5017998;28;20555;-74
2022/08/01 02:56:05;;;;;;;3.20;3.00;;;;;;;20.19;95.08;100333.59;5007469;28;20218;-76
2022/08/01 02:58:33;;;;;;;3.47;3.20;;;;;;;20.14;95.09;100328.53;5006755;28;20200;-75
2022/08/01 03:00:59;;;;;;;3.23;2.93;;;;;;;20.11;95.58;100328.69;5002977;28;20203;-77
2022/08/01 03:03:25;;;;;;;3.60;3.30;;;;;;;20.08;95.31;100337.56;5022652;28;20191;-77
2022/08/01 03:05:51;;;;;;;3.30;3.10;;;;;;;20.03;95.16;100334.31;5013598;28;20208;-76
2022/08/01 03:08:19;;;;;;;3.47;3.27;;;;;;;20.01;95.32;100338.78;5005576;28;20252;-77
2022/08/01 03:10:45;;;;;;;3.53;3.27;;;;;;;19.98;95.35;100333.69;5009668;28;20361;-79
2022/08/01 03:13:16;;;;;;;3.10;2.90;;;;;;;19.95;95.44;100326.81;5005545;28;20223;-78
2022/08/01 03:15:43;;;;;;;3.33;3.00;;;;;;;19.93;95.22;100331.28;5008126;28;20218;-77
2022/08/01 03:18:11;;;;;;;2.93;2.73;;;;;;;19.91;95.71;100330.50;5017675;28;20249;-75
2022/08/01 03:20:37;;;;;;;3.50;3.30;;;;;;;19.90;95.61;100328.78;5008019;28;20265;-74
2022/08/01 03:23:07;;;;;;;3.10;2.80;;;;;;;19.89;95.62;100331.50;5009670;28;20223;-74
2022/08/01 03:25:36;;;;;;;3.43;3.13;;;;;;;19.87;95.47;100328.94;5004301;28;20343;-77
2022/08/01 03:28:04;;;;;;;3.40;3.20;;;;;;;19.88;95.30;100332.44;5007528;28;20190;-75
2022/08/01 03:30:32;;;;;;;3.20;2.90;;;;;;;19.87;94.52;100326.31;5007632;28;20288;-75
2022/08/01 03:32:58;;;;;;;3.33;3.03;;;;;;;19.88;94.24;100328.00;5017614;28;20669;-74
2022/08/01 03:35:30;;;;;;;3.30;3.10;;;;;;;19.89;95.08;100328.88;5010029;28;20274;-78
2022/08/01 03:37:57;;;;;;;3.50;3.30;;;;;;;19.90;94.85;100333.19;5008878;28;20261;-76
2022/08/01 03:40:39;;;;;;;3.30;3.10;;;;;;;19.88;95.55;100337.69;5025116;28;20242;-78
2022/08/01 03:43:19;;;;;;;2.90;2.70;;;;;;;19.85;95.77;100332.53;5009403;28;20633;-77
2022/08/01 03:45:51;;;;;;;3.17;2.87;;;;;;;19.82;95.56;100337.91;5006330;28;20279;-75
2022/08/01 03:48:19;;;;;;;3.23;3.03;;;;;;;19.77;95.77;100333.72;5006544;28;20199;-78
2022/08/01 03:50:50;;;;;;;3.63;3.27;;;;;;;19.75;95.95;100335.56;5007611;28;20745;-75
2022/08/01 03:53:22;;;;;;;3.33;3.03;;;;;;;19.74;96.06;100341.75;5008862;28;20245;-77
2022/08/01 03:55:48;;;;;;;3.00;2.80;;;;;;;19.74;96.44;100338.28;5013277;28;20248;-76
2022/08/01 03:58:14;;;;;;;3.20;3.00;;;;;;;19.77;96.45;100336.34;5012042;28;20194;-79
2022/08/01 04:00:40;;;;;;;3.43;3.10;;;;;;;19.83;96.76;100340.47;5021620;28;20195;-76
2022/08/01 04:03:10;;;;;;;3.03;2.83;;;;;;;19.89;96.05;100340.22;5003206;28;20191;-76
2022/08/01 04:05:35;;;;;;;3.13;2.93;;;;;;;19.93;96.23;100341.78;5025908;28;20191;-76
2022/08/01 04:08:02;;;;;;;3.30;3.10;;;;;;;19.97;95.97;100342.47;5009313;28;20196;-77
2022/08/01 04:10:28;;;;;;;3.40;3.20;;;;;;;20.03;96.08;100338.72;4999181;28;20299;-78
2022/08/01 04:12:53;;;;;;;3.33;3.10;;;;;;;20.08;95.99;100339.34;5014374;28;20192;-77
2022/08/01 04:15:22;;;;;;;3.90;3.50;;;;;;;20.10;95.49;100338.34;5014954;28;20273;-75
2022/08/01 04:17:47;;;;;;;3.00;2.80;;;;;;;20.15;95.45;100340.75;5008752;28;20195;-75
2022/08/01 04:20:13;;;;;;;3.53;3.20;;;;;;;20.20;95.44;100341.38;5007001;28;21031;-75
2022/08/01 04:22:39;;;;;;;3.53;3.23;;;;;;;20.27;95.25;100331.44;5016654;28;20247;-77
2022/08/01 04:25:12;;;;;;;3.70;3.40;;;;;;;20.48;94.63;100331.31;5007393;28;20202;-78
2022/08/01 04:27:42;;;;;;;3.30;3.10;;;;;;;20.84;93.56;100338.28;5006871;28;20205;-74
2022/08/01 04:30:09;;;;;;;3.97;3.13;;;;;;;21.24;92.09;100351.16;5011048;28;20960;-77
2022/08/01 04:32:39;;;;;;;3.43;3.23;;;;;;;21.84;90.24;100339.19;5018783;28;20894;-76
2022/08/01 04:35:09;;;;;;;2.90;2.70;;;;;;;22.58;88.19;100345.56;5009443;28;20613;-76
2022/08/01 04:37:36;;;;;;;3.27;3.07;;;;;;;23.19;86.11;100352.56;5011835;28;20192;-75
2022/08/01 04:40:05;;;;;;;3.30;3.00;;;;;;;23.35;85.25;100345.44;4996865;28;20217;-77
2022/08/01 04:42:32;;;;;;;3.00;2.80;;;;;;;23.37;85.06;100348.81;5001908;28;20275;-74
2022/08/01 04:44:58;;;;;;;3.07;2.77;;;;;;;23.51;84.70;100355.06;5018514;28;20192;-74
2022/08/01 04:47:25;;;;;;;3.40;3.10;;;;;;;23.43;84.47;100352.88;5008697;28;20681;-76
2022/08/01 04:49:51;;;;;;;2.97;2.77;;;;;;;23.21;85.06;100358.63;5004433;28;20274;-77
2022/08/01 04:52:17;;;;;;;3.43;3.13;;;;;;;23.05;85.70;100348.97;5011437;28;20283;-81
2022/08/01 04:54:43;;;;;;;2.87;2.67;;;;;;;22.96;85.90;100354.78;5016805;28;20196;-74
2022/08/01 04:57:09;;;;;;;3.33;3.13;;;;;;;22.92;86.18;100348.00;5014404;28;20769;-77
2022/08/01 04:59:41;;;;;;;3.50;3.27;;;;;;;22.99;86.28;100349.34;5008218;28;20239;-76
2022/08/01 05:02:10;;;;;;;2.90;2.70;;;;;;;23.06;85.97;100348.03;5005112;28;20199;-76
2022/08/01 05:04:37;;;;;;;3.27;2.97;;;;;;;23.09;85.66;100353.09;5004491;28;20279;-75
2022/08/01 05:07:03;;;;;;;2.80;2.60;;;;;;;23.15;85.73;100351.88;5000794;28;20258;-78
2022/08/01 05:09:30;;;;;;;3.07;2.87;;;;;;;23.23;85.40;100354.09;5009714;28;20648;-80
2022/08/01 05:11:58;;;;;;;3.23;2.93;;;;;;;23.33;85.25;100349.97;5001303;28;20201;-80
2022/08/01 05:14:25;;;;;;;3.27;3.00;;;;;;;23.47;85.30;100350.91;5007100;28;20191;-80
2022/08/01 05:16:51;;;;;;;3.00;2.80;;;;;;;23.53;85.12;100353.13;5008201;28;20579;-75
2022/08/01 05:19:17;;;;;;;3.43;3.13;;;;;;;23.67;84.95;100360.22;5004993;28;20199;-74
2022/08/01 05:21:42;;;;;;;3.60;3.30;;;;;;;23.81;84.79;100359.34;5004331;28;20196;-74
2022/08/01 05:24:08;;;;;;;2.80;2.60;;;;;;;24.09;84.01;100353.16;5016156;28;20913;-75
2022/08/01 05:26:33;;;;;;;3.93;2.80;;;;;;;24.48;82.61;100354.13;5002769;28;20234;-75
2022/08/01 05:28:59;;;;;;;2.70;2.50;;;;;;;24.56;81.85;100350.97;5002034;28;20200;-75
2022/08/01 05:31:25;;;;;;;3.10;2.80;;;;;;;24.50;81.86;100354.84;5001200;28;20681;-74
2022/08/01 05:33:50;;;;;;;3.23;3.00;;;;;;;24.96;81.06;100358.88;5006111;28;20239;-79
2022/08/01 05:36:16;;;;;;;3.10;2.90;;;;;;;26.32;77.71;100358.22;5000415;28;20215;-76
2022/08/01 05:38:41;;;;;;;3.33;3.10;;;;;;;27.45;74.62;100359.44;5003737;28;20258;-75
2022/08/01 05:41:06;;;;;;;3.97;3.10;;;;;;;28.28;71.60;100360.75;5002438;28;20212;-76
2022/08/01 05:43:32;;;;;;;3.20;3.00;;;;;;;27.89;71.19;100356.84;5000945;28;20652;-77
2022/08/01 05:45:58;;;;;;;3.90;3.00;;;;;;;27.12;73.18;100361.09;5004443;28;20556;-74
2022/08/01 05:48:24;;;;;;;3.30;3.00;;;;;;;27.06;73.40;100365.91;4999017;28;20181;-79
2022/08/01 05:50:50;;;;;;;3.87;2.80;;;;;;;27.97;71.97;100362.41;5012866;28;20218;-78
2022/08/01 05:53:15;;;;;;;2.90;2.70;;;;;;;28.52;71.11;100353.50;5006672;28;20211;-79
2022/08/01 05:55:41;;;;;;;2.80;2.60;;;;;;;29.35;69.18;100353.59;4993136;28;20208;-76
2022/08/01 05:58:06;;;;;;;2.83;2.63;;;;;;;29.08;69.53;100352.34;5005998;28;20207;-76
2022/08/01 06:00:32;;;;;;;3.00;2.80;;;;;;;29.44;68.89;100351.94;4999634;28;20708;-73
2022/08/01 06:02:57;;;;;;;2.80;2.60;;;;;;;29.47;68.17;100352.50;5008865;28;20211;-78
2022/08/01 06:05:23;;;;;;;2.80;2.60;;;;;;;29.40;68.66;100345.19;5012479;28;20677;-78
2022/08/01 06:07:48;;;;;;;3.20;2.90;;;;;;;28.83;70.00;100356.25;5019169;28;20187;-78
2022/08/01 06:10:13;;;;;;;2.77;2.57;;;;;;;28.62;70.58;100361.56;5007096;28;20633;-78
2022/08/01 06:12:39;;;;;;;3.47;2.70;;;;;;;29.01;70.28;100354.69;5001460;28;20242;-78
2022/08/01 06:15:06;;;;;;;2.60;2.40;;;;;;;29.27;70.01;100358.72;5025825;28;20581;-77
2022/08/01 06:17:31;;;;;;;2.60;2.40;;;;;;;29.53;69.25;100360.97;5020336;28;20233;-77
2022/08/01 06:19:57;;;;;;;2.43;2.23;;;;;;;29.44;69.25;100349.28;5007412;28;20299;-75
2022/08/01 06:22:22;;;;;;;2.27;2.07;;;;;;;28.98;70.61;100354.94;4996078;28;20189;-75
2022/08/01 06:24:47;;;;;;;2.70;2.50;;;;;;;28.52;71.93;100356.97;5004826;28;20283;-77
2022/08/01 06:27:13;;;;;;;2.50;2.40;;;;;;;28.19;72.57;100361.50;4999549;28;20236;-78
2022/08/01 06:29:38;;;;;;;3.03;2.37;;;;;;;27.88;73.12;100360.47;5004044;28;20211;-80
2022/08/01 06:32:04;;;;;;;2.50;2.30;;;;;;;27.64;73.93;100358.84;5007764;28;20219;-76
2022/08/01 06:34:29;;;;;;;2.43;2.10;;;;;;;27.54;74.43;100359.53;4999922;28;20203;-77
2022/08/01 06:36:54;;;;;;;2.50;2.30;;;;;;;27.45;74.54;100359.44;5007377;28;20346;-77
2022/08/01 06:39:20;;;;;;;2.57;2.37;;;;;;;27.20;75.31;100361.34;5009715;28;20283;-75
2022/08/01 06:41:48;;;;;;;3.13;2.60;;;;;;;27.49;75.02;100363.53;4997086;28;20279;-77
2022/08/01 06:44:13;;;;;;;2.77;2.57;;;;;;;28.40;73.53;100364.22;4998270;28;20664;-78
2022/08/01 06:46:39;;;;;;;3.03;2.70;;;;;;;28.90;71.71;100360.94;5002398;28;20270;-78
2022/08/01 06:49:04;;;;;;;2.50;2.30;;;;;;;28.65;72.11;100371.94;5014230;28;20664;-76
2022/08/01 06:51:30;;;;;;;3.17;2.37;;;;;;;28.37;72.82;100368.91;5004182;28;20604;-77
2022/08/01 06:53:55;;;;;;;2.77;2.57;;;;;;;28.70;72.43;100375.06;5015104;28;20351;-77
2022/08/01 06:56:21;;;;;;;2.70;2.43;;;;;;;29.34;71.23;100371.38;5012430;28;20594;-74
2022/08/01 06:58:46;;;;;;;3.20;2.30;;;;;;;29.20;71.16;100371.72;4999569;28;20185;-75
2022/08/01 07:01:12;;;;;;;2.43;2.23;;;;;;;29.70;70.66;100372.78;5001851;28;21998;-79
2022/08/01 07:03:37;;;;;;;2.60;2.20;;;;;;;30.14;69.70;100375.97;5013197;28;20210;-78
2022/08/01 07:06:03;;;;;;;2.40;2.20;;;;;;;29.87;70.40;100376.63;5008459;28;20189;-74
2022/08/01 07:08:28;;;;;;;2.67;2.40;;;;;;;29.59;70.86;100379.91;5014481;28;20274;-76
2022/08/01 07:10:55;;;;;;;3.90;2.57;;;;;;;29.28;71.07;100377.25;5005960;28;20262;-77
2022/08/01 07:13:24;;;;;;;2.37;2.17;;;;;;;28.79;72.49;100379.66;5010844;28;20566;-77
2022/08/01 07:15:50;;;;;;;2.20;2.10;;;;;;;28.25;73.72;100376.13;5008734;28;20216;-76
2022/08/01 07:18:15;;;;;;;3.10;2.33;;;;;;;27.82;75.18;100380.44;4997863;28;20203;-77
2022/08/01 07:20:40;;;;;;;2.43;1.87;;;;;;;27.49;75.99;100377.69;5011727;28;20211;-77
2022/08/01 07:23:06;;;;;;;2.60;2.40;;;;;;;27.19;76.86;100376.44;5004150;28;20200;-76
2022/08/01 07:25:31;;;;;;;2.40;2.20;;;;;;;27.06;77.01;100378.38;5006234;28;20199;-77
2022/08/01 07:27:57;;;;;;;2.23;2.10;;;;;;;26.93;77.67;100378.47;5002218;28;20710;-76
2022/08/01 07:30:22;;;;;;;2.73;2.23;;;;;;;26.79;78.49;100376.84;5005227;28;20802;-74
2022/08/01 07:32:48;;;;;;;2.63;2.43;;;;;;;26.68;78.63;100372.34;5005046;28;20607;-76
2022/08/01 07:35:13;;;;;;;2.03;1.90;;;;;;;26.62;79.40;100372.78;5012654;28;20208;-77
2022/08/01 07:37:38;;;;;;;2.30;2.10;;;;;;;26.58;79.46;100371.31;5008195;28;20196;-75
2022/08/01 07:40:05;;;;;;;2.53;1.90;;;;;;;26.59;79.75;100362.41;5011480;28;20224;-76
2022/08/01 07:42:31;;;;;;;2.57;2.37;;;;;;;26.87;79.33;100362.97;5005166;28;20652;-76
2022/08/01 07:44:56;;;;;;;2.40;2.20;;;;;;;27.11;78.40;100376.19;5009309;28;20249;-79
2022/08/01 07:47:26;;;;;;;4.50;2.37;;;;;;;27.31;78.33;100366.66;5010420;28;20667;-80
2022/08/01 07:49:52;;;;;;;2.10;2.00;;;;;;;27.94;77.01;100367.97;5008241;28;20203;-79
2022/08/01 07:52:18;;;;;;;1.87;1.70;;;;;;;28.70;75.01;100361.75;5016321;28;20196;-76
2022/08/01 07:54:43;;;;;;;2.23;2.03;;;;;;;29.21;72.69;100360.09;5024856;28;20188;-76
2022/08/01 07:57:09;;;;;;;2.53;2.33;;;;;;;29.57;71.89;100359.72;5026407;28;20211;-75
2022/08/01 07:59:34;;;;;;;2.20;2.00;;;;;;;29.90;71.50;100363.84;5012264;28;20243;-76
2022/08/01 08:02:00;;;;;;;2.13;2.00;;;;;;;30.30;70.74;100364.75;5010059;28;20183;-79
2022/08/01 08:04:26;;;;;;;2.30;2.10;;;;;;;30.42;70.07;100354.75;5019354;28;20661;-78
2022/08/01 08:06:53;;;;;;;2.50;2.30;;;;;;;30.39;70.12;100350.56;5011580;28;20183;-75
2022/08/01 08:09:18;;;;;;;2.00;1.90;;;;;;;30.41;70.46;100347.72;5011909;28;20210;-76
2022/08/01 08:11:45;;;;;;;2.20;2.10;;;;;;;30.58;70.30;100356.03;5011136;28;20200;-76
2022/08/01 08:14:11;;;;;;;2.40;2.20;;;;;;;30.56;70.42;100346.34;4998690;28;20187;-76
2022/08/01 08:16:37;;;;;;;1.93;1.73;;;;;;;30.49;70.51;100349.69;5009110;28;20211;-76
2022/08/01 08:19:02;;;;;;;1.73;1.63;;;;;;;30.38;70.89;100351.53;5002053;28;20284;-77
2022/08/01 08:21:28;;;;;;;2.90;2.13;;;;;;;30.70;70.57;100346.91;5000673;28;20215;-75
2022/08/01 08:26:37;;;;;;;2.27;2.07;;;;;;;31.17;69.36;100343.41;5009868;28;20210;-76
2022/08/01 08:29:03;;;;;;;2.30;2.10;;;;;;;31.15;69.07;100345.38;5007049;28;20181;-78
2022/08/01 08:31:28;;;;;;;1.90;1.80;;;;;;;31.27;68.97;100346.88;5017026;28;20547;-75
2022/08/01 08:33:54;;;;;;;2.05;1.95;;;;;;;31.51;68.79;100337.47;5014297;28;20184;-78
2022/08/01 08:36:19;;;;;;;2.13;2.03;;;;;;;31.74;68.43;100339.75;5011228;28;20269;-79
2022/08/01 08:38:44;;;;;;;2.25;2.15;;;;;;;31.97;67.04;100344.69;5027231;28;20186;-75
2022/08/01 08:41:13;;;;;;;1.90;1.80;;;;;;;32.00;67.38;100339.00;5015655;28;20280;-76
2022/08/01 08:43:39;;;;;;;2.03;1.92;;;;;;;32.04;66.71;100327.84;5003181;28;20238;-75
2022/08/01 08:46:07;;;;;;;1.80;1.70;;;;;;;32.08;67.05;100337.25;5010851;28;20535;-76
2022/08/01 08:48:33;;;;;;;1.80;1.70;;;;;;;32.08;66.75;100333.75;5028158;28;20191;-75
2022/08/01 08:51:01;;;;;;;1.83;1.73;;;;;;;31.93;67.02;100334.28;5010176;28;20206;-75
2022/08/01 08:53:27;;;;;;;2.42;1.88;;;;;;;31.84;66.24;100327.16;5007302;28;20188;-75
2022/08/01 08:55:53;;;;;;;3.15;2.00;;;;;;;31.66;66.45;100329.78;5012012;28;20707;-76
2022/08/01 08:58:19;;;;;;;2.30;2.10;;;;;;;31.57;66.49;100328.84;5007894;28;20188;-75
2022/08/01 09:00:45;;;;;;;1.77;1.60;;;;;;;31.62;67.06;100323.03;5011000;28;20215;-77
2022/08/01 09:03:12;;;;;;;2.78;2.20;;;;;;;31.63;67.05;100322.91;5019047;28;20187;-77
2022/08/01 09:05:40;;;;;;;1.92;1.80;;;;;;;31.69;67.11;100332.16;5022078;28;20210;-78
2022/08/01 09:08:07;;;;;;;2.15;2.00;;;;;;;31.74;67.00;100323.69;5005892;28;20176;-75
2022/08/01 09:10:33;;;;;;;1.90;1.80;;;;;;;31.69;67.26;100332.16;5005399;28;20223;-78
2022/08/01 09:13:02;;;;;;;1.98;1.88;;;;;;;31.73;67.51;100328.22;5009588;28;20188;-75
2022/08/01 09:15:42;;;;;;;2.08;1.88;;;;;;;31.82;67.49;100334.50;5003258;28;20213;-75
2022/08/01 09:18:08;;;;;;;1.92;1.80;;;;;;;31.71;67.70;100329.34;5007422;28;20184;-76
2022/08/01 09:20:36;;;;;;;1.70;1.60;;;;;;;31.65;67.51;100333.44;5009060;28;20207;-77
2022/08/01 09:23:02;;;;;;;1.70;1.60;;;;;;;31.58;67.31;100327.84;5018599;28;20215;-75
2022/08/01 09:25:32;;;;;;;1.70;1.60;;;;;;;31.57;67.89;100336.88;5012466;28;20545;-77
2022/08/01 09:28:06;;;;;;;2.08;1.85;;;;;;;31.58;67.31;100335.06;4991907;28;20258;-75
2022/08/01 09:30:38;;;;;;;1.90;1.80;;;;;;;31.71;67.16;100335.56;5000482;28;20247;-75
2022/08/01 09:33:05;;;;;;;1.92;1.83;;;;;;;31.84;66.71;100334.34;5013561;28;20176;-77
2022/08/01 09:35:34;;;;;;;2.20;2.00;;;;;;;31.97;66.27;100329.44;5009946;28;20246;-76
2022/08/01 09:38:18;;;;;;;2.10;2.00;;;;;;;32.20;65.72;100337.84;5016304;28;20191;-75
2022/08/01 09:40:51;;;;;;;1.92;1.80;;;;;;;32.15;65.27;100323.25;5005340;28;20203;-76
2022/08/01 09:43:18;;;;;;;2.85;1.73;;;;;;;31.98;65.64;100330.31;5015852;28;20529;-75
2022/08/01 09:45:44;;;;;;;2.38;2.17;;;;;;;31.68;65.59;100333.16;5011796;28;20696;-74
2022/08/01 09:48:10;;;;;;;2.28;2.13;;;;;;;31.48;66.12;100335.94;5010148;28;20180;-78
2022/08/01 09:50:40;;;;;;;2.17;2.00;;;;;;;31.40;66.46;100332.31;5014798;28;20207;-78
2022/08/01 09:53:06;;;;;;;2.70;2.15;;;;;;;31.23;67.00;100332.13;5007932;28;20238;-77
2022/08/01 09:55:31;;;;;;;2.35;2.00;;;;;;;31.08;67.27;100333.56;5003225;28;20200;-75
2022/08/01 09:58:00;;;;;;;2.13;1.90;;;;;;;30.92;67.63;100336.84;5013475;28;20671;-76
2022/08/01 10:00:26;;;;;;;2.00;1.90;;;;;;;30.76;68.01;100340.16;5012825;28;20212;-78
2022/08/01 10:02:52;;;;;;;2.23;2.13;;;;;;;30.73;68.26;100327.06;5012913;28;20185;-78
2022/08/01 10:05:19;;;;;;;2.10;2.00;;;;;;;31.01;68.66;100327.94;4990248;28;20186;-78
2022/08/01 10:08:04;;;;;;;2.33;2.13;;;;;;;31.14;68.05;100327.66;4986777;28;20193;-75
2022/08/01 10:10:31;;;;;;;2.30;2.13;;;;;;;31.00;67.94;100327.13;4986991;28;20775;-76
2022/08/01 10:13:00;;;;;;;2.80;2.60;;;;;;;30.78;67.85;100331.00;5003533;28;20271;-76
2022/08/01 10:15:27;;;;;;;1.97;1.73;;;;;;;30.54;68.66;100328.75;5015508;28;20204;-76
2022/08/01 10:17:58;;;;;;;2.80;2.30;;;;;;;30.30;69.03;100331.88;5010208;28;20192;-78
2022/08/01 10:20:29;;;;;;;3.13;2.07;;;;;;;30.19;68.92;100319.50;5006057;28;20215;-75
2022/08/01 10:22:57;;;;;;;2.00;1.90;;;;;;;30.25;69.11;100317.13;5010128;28;20260;-76
2022/08/01 10:25:23;;;;;;;4.43;2.53;;;;;;;30.36;69.21;100310.78;5006545;28;20282;-76
2022/08/01 10:27:51;;;;;;;3.17;2.60;;;;;;;30.41;69.41;100315.69;5002252;28;20560;-75
2022/08/01 10:30:17;;;;;;;2.37;2.17;;;;;;;30.25;69.85;100317.13;5014534;28;20278;-76
2022/08/01 10:32:45;;;;;;;6.93;2.70;;;;;;;30.09;69.71;100308.84;5011210;28;20188;-76
2022/08/01 10:35:16;;;;;;;2.43;2.23;;;;;;;29.95;70.35;100315.44;4996517;28;20327;-76
2022/08/01 10:37:43;;;;;;;2.13;2.03;;;;;;;29.87;70.19;100310.78;4995522;28;21006;-77
2022/08/01 10:40:14;;;;;;;3.60;2.30;;;;;;;30.09;70.18;100307.03;5015308;28;20218;-78
2022/08/01 10:42:42;;;;;;;2.33;2.17;;;;;;;30.52;69.80;100309.34;5027629;28;20209;-77
2022/08/01 10:45:09;;;;;;;2.53;2.30;;;;;;;30.97;69.56;100302.53;5000489;28;20196;-77
2022/08/01 10:47:39;;;;;;;2.60;2.40;;;;;;;31.44;68.68;100299.81;5002844;28;20188;-75
2022/08/01 10:50:16;;;;;;;2.30;2.10;;;;;;;31.86;67.88;100297.56;5005738;28;20215;-74
2022/08/01 10:52:41;;;;;;;2.35;2.17;;;;;;;32.16;65.85;100285.63;5002501;28;20564;-76
2022/08/01 10:55:10;;;;;;;2.55;2.35;;;;;;;32.44;65.21;100290.91;5006519;28;20197;-77
2022/08/01 10:57:46;;;;;;;2.70;2.50;;;;;;;32.71;65.01;100278.34;5008367;28;20192;-78
2022/08/01 11:00:19;;;;;;;2.50;2.30;;;;;;;33.01;64.71;100280.66;5004014;28;20207;-75
2022/08/01 11:03:01;;;;;;;2.47;2.20;;;;;;;33.06;63.73;100292.59;4998257;28;20216;-75
2022/08/01 11:05:31;;;;;;;2.40;2.20;;;;;;;32.89;64.05;100290.84;5004857;28;20195;-75
2022/08/01 11:08:00;;;;;;;2.10;2.00;;;;;;;32.66;64.33;100286.84;5015908;28;20331;-76
2022/08/01 11:10:39;;;;;;;2.17;2.08;;;;;;;32.59;64.38;100298.34;5003764;28;20630;-75
2022/08/01 11:13:07;;;;;;;2.30;2.20;;;;;;;32.34;63.58;100291.00;5005056;28;20191;-75
2022/08/01 11:15:34;;;;;;;2.58;2.38;;;;;;;32.03;63.95;100294.06;4999905;28;20205;-77
2022/08/01 11:18:02;;;;;;;2.67;2.17;;;;;;;31.72;64.58;100302.47;5006410;28;20745;-77
2022/08/01 11:20:30;;;;;;;2.97;2.30;;;;;;;31.61;64.60;100294.63;5009576;28;20213;-78
2022/08/01 11:22:58;;;;;;;2.35;2.13;;;;;;;31.65;64.62;100289.81;4997474;28;20211;-74
2022/08/01 11:25:24;;;;;;;2.08;1.98;;;;;;;31.66;64.71;100283.47;5009511;28;20184;-75
2022/08/01 11:28:18;;;;;;;2.10;2.00;;;;;;;31.77;64.10;100293.97;5009162;28;20196;-76
2022/08/01 11:30:54;;;;;;;2.05;1.95;;;;;;;31.88;63.87;100275.00;5000581;28;20209;-76
2022/08/01 11:33:41;;;;;;;2.58;2.38;;;;;;;31.94;62.50;100270.88;5009430;28;20200;-76
2022/08/01 11:36:12;;;;;;;;;;;;;;;;;;;;;